createdAt,value
2017-04-25T00:00:37.482Z,975.02
2017-04-25T00:01:39.857Z,974.99
2017-04-25T00:02:42.243Z,975.01
2017-04-25T00:03:45.301Z,975.04
2017-04-25T00:04:47.690Z,975.04
2017-04-25T00:05:50.090Z,975.06
2017-04-25T00:06:52.480Z,975.02
2017-04-25T00:07:54.873Z,975.04
2017-04-25T00:08:58.020Z,975.02
2017-04-25T00:10:00.399Z,975.04
2017-04-25T00:11:02.805Z,975.04
2017-04-25T00:12:05.190Z,975.09
2017-04-25T00:13:07.585Z,975.06
2017-04-25T00:14:10.731Z,975.09
2017-04-25T00:15:13.127Z,975.07
2017-04-25T00:16:15.519Z,975.10
2017-04-25T00:17:17.914Z,975.06
2017-04-25T00:18:20.298Z,975.15
2017-04-25T00:19:23.427Z,975.12
2017-04-25T00:20:25.815Z,975.18
2017-04-25T00:21:28.202Z,975.22
2017-04-25T00:22:30.605Z,975.21
2017-04-25T00:23:33.046Z,975.25
2017-04-25T00:24:36.082Z,975.24
2017-04-25T00:25:38.472Z,975.23
2017-04-25T00:26:40.863Z,975.28
2017-04-25T00:27:43.268Z,975.24
2017-04-25T00:28:45.660Z,975.25
2017-04-25T00:29:48.805Z,975.26
2017-04-25T00:30:51.195Z,975.28
2017-04-25T00:31:53.576Z,975.29
2017-04-25T00:32:55.977Z,975.26
2017-04-25T00:33:58.363Z,975.28
2017-04-25T00:35:01.361Z,975.26
2017-04-25T00:36:03.750Z,975.31
2017-04-25T00:37:06.144Z,975.34
2017-04-25T00:38:08.533Z,975.32
2017-04-25T00:39:10.915Z,975.31
2017-04-25T00:40:13.886Z,975.33
2017-04-25T00:41:16.274Z,975.32
2017-04-25T00:42:18.662Z,975.33
2017-04-25T00:43:21.057Z,975.36
2017-04-25T00:44:23.448Z,975.32
2017-04-25T00:45:26.423Z,975.34
2017-04-25T00:46:28.819Z,975.32
2017-04-25T00:47:31.199Z,975.33
2017-04-25T00:48:33.596Z,975.33
2017-04-25T00:49:35.997Z,975.33
2017-04-25T00:50:39.128Z,975.37
2017-04-25T00:51:41.536Z,975.40
2017-04-25T00:52:43.924Z,975.35
2017-04-25T00:53:46.322Z,975.38
2017-04-25T00:54:48.713Z,975.37
2017-04-25T00:55:51.716Z,975.40
2017-04-25T00:56:54.087Z,975.44
2017-04-25T00:57:56.478Z,975.39
2017-04-25T00:58:58.867Z,975.41
2017-04-25T01:00:01.247Z,975.50
2017-04-25T01:01:04.222Z,975.46
2017-04-25T01:02:06.618Z,975.49
2017-04-25T01:03:09.010Z,975.51
2017-04-25T01:04:11.398Z,975.52
2017-04-25T01:05:13.804Z,975.52
2017-04-25T01:06:16.929Z,975.49
2017-04-25T01:07:19.320Z,975.50
2017-04-25T01:08:21.693Z,975.51
2017-04-25T01:09:24.090Z,975.50
2017-04-25T01:10:26.480Z,975.54
2017-04-25T01:11:29.622Z,975.52
2017-04-25T01:12:32.022Z,975.54
2017-04-25T01:13:34.394Z,975.52
2017-04-25T01:14:36.783Z,975.56
2017-04-25T01:15:39.170Z,975.56
2017-04-25T01:16:42.161Z,975.55
2017-04-25T01:17:44.527Z,975.53
2017-04-25T01:18:46.907Z,975.54
2017-04-25T01:19:49.306Z,975.58
2017-04-25T01:20:51.690Z,975.54
2017-04-25T01:21:54.815Z,975.58
2017-04-25T01:22:57.210Z,975.57
2017-04-25T01:23:59.595Z,975.62
2017-04-25T01:25:01.996Z,975.64
2017-04-25T01:26:04.385Z,975.66
2017-04-25T01:27:07.525Z,975.67
2017-04-25T01:28:09.928Z,975.66
2017-04-25T01:29:12.313Z,975.67
2017-04-25T01:30:14.718Z,975.69
2017-04-25T01:31:17.107Z,975.68
2017-04-25T01:32:20.094Z,975.68
2017-04-25T01:33:22.500Z,975.67
2017-04-25T01:34:24.891Z,975.64
2017-04-25T01:35:27.288Z,975.63
2017-04-25T01:36:29.685Z,975.60
2017-04-25T01:37:32.667Z,975.62
2017-04-25T01:38:35.054Z,975.62
2017-04-25T01:39:37.443Z,975.64
2017-04-25T01:40:39.832Z,975.63
2017-04-25T01:41:42.204Z,975.63
2017-04-25T01:42:45.195Z,975.60
2017-04-25T01:43:47.581Z,975.65
2017-04-25T01:44:50.152Z,975.60
2017-04-25T01:45:52.552Z,975.57
2017-04-25T01:46:54.960Z,975.62
2017-04-25T01:47:57.943Z,975.58
2017-04-25T01:49:00.341Z,975.65
2017-04-25T01:50:02.735Z,975.70
2017-04-25T01:51:05.101Z,975.70
2017-04-25T01:52:07.498Z,975.73
2017-04-25T01:53:10.458Z,975.76
2017-04-25T01:54:12.851Z,975.80
2017-04-25T01:55:15.244Z,975.83
2017-04-25T01:56:17.630Z,975.87
2017-04-25T01:57:20.037Z,975.87
2017-04-25T01:58:22.947Z,975.88
2017-04-25T01:59:25.340Z,975.84
2017-04-25T02:00:27.952Z,975.84
2017-04-25T02:01:30.349Z,975.89
2017-04-25T02:02:32.754Z,975.89
2017-04-25T02:03:35.768Z,975.88
2017-04-25T02:04:38.146Z,975.91
2017-04-25T02:05:40.544Z,975.87
2017-04-25T02:06:42.949Z,975.90
2017-04-25T02:07:45.338Z,975.88
2017-04-25T02:08:48.342Z,975.93
2017-04-25T02:09:50.740Z,975.92
2017-04-25T02:10:53.130Z,975.92
2017-04-25T02:11:55.529Z,975.89
2017-04-25T02:12:57.938Z,975.92
2017-04-25T02:14:00.947Z,975.89
2017-04-25T02:15:03.331Z,975.88
2017-04-25T02:16:05.723Z,975.89
2017-04-25T02:17:08.129Z,975.92
2017-04-25T02:18:10.535Z,975.86
2017-04-25T02:19:13.889Z,975.86
2017-04-25T02:20:16.289Z,975.85
2017-04-25T02:21:18.677Z,975.86
2017-04-25T02:22:21.294Z,975.87
2017-04-25T02:23:23.690Z,975.90
2017-04-25T02:24:26.695Z,975.90
2017-04-25T02:25:29.084Z,975.96
2017-04-25T02:26:31.450Z,975.95
2017-04-25T02:27:33.844Z,975.97
2017-04-25T02:28:36.245Z,975.96
2017-04-25T02:29:39.262Z,976.02
2017-04-25T02:30:41.657Z,976.02
2017-04-25T02:31:44.047Z,976.00
2017-04-25T02:32:46.454Z,976.06
2017-04-25T02:33:48.834Z,976.04
2017-04-25T02:34:51.971Z,976.05
2017-04-25T02:35:54.360Z,976.05
2017-04-25T02:36:56.962Z,976.06
2017-04-25T02:37:59.341Z,976.11
2017-04-25T02:39:01.729Z,976.09
2017-04-25T02:40:04.877Z,976.13
2017-04-25T02:41:07.265Z,976.15
2017-04-25T02:42:09.859Z,976.17
2017-04-25T02:43:12.267Z,976.18
2017-04-25T02:44:14.632Z,976.20
2017-04-25T02:45:17.628Z,976.23
2017-04-25T02:46:20.021Z,976.24
2017-04-25T02:47:22.418Z,976.33
2017-04-25T02:48:24.817Z,976.30
2017-04-25T02:49:27.190Z,976.31
2017-04-25T02:50:30.169Z,976.31
2017-04-25T02:51:32.561Z,976.37
2017-04-25T02:52:34.953Z,976.34
2017-04-25T02:53:37.341Z,976.40
2017-04-25T02:54:39.739Z,976.40
2017-04-25T02:55:42.743Z,976.41
2017-04-25T02:56:45.141Z,976.39
2017-04-25T02:57:47.511Z,976.45
2017-04-25T02:58:49.905Z,976.45
2017-04-25T02:59:52.290Z,976.47
2017-04-25T03:00:55.282Z,976.45
2017-04-25T03:01:57.686Z,976.46
2017-04-25T03:03:00.075Z,976.44
2017-04-25T03:04:02.471Z,976.46
2017-04-25T03:05:04.861Z,976.48
2017-04-25T03:06:07.995Z,976.49
2017-04-25T03:07:10.396Z,976.51
2017-04-25T03:08:12.792Z,976.51
2017-04-25T03:09:15.174Z,976.54
2017-04-25T03:10:17.567Z,976.55
2017-04-25T03:11:20.712Z,976.54
2017-04-25T03:12:23.109Z,976.53
2017-04-25T03:13:25.496Z,976.52
2017-04-25T03:14:27.878Z,976.54
2017-04-25T03:15:30.278Z,976.55
2017-04-25T03:16:33.405Z,976.56
2017-04-25T03:17:35.804Z,976.51
2017-04-25T03:18:38.185Z,976.56
2017-04-25T03:19:40.542Z,976.55
2017-04-25T03:20:42.937Z,976.58
2017-04-25T03:21:46.074Z,976.61
2017-04-25T03:22:48.476Z,976.63
2017-04-25T03:23:50.886Z,976.64
2017-04-25T03:24:53.281Z,976.67
2017-04-25T03:25:55.669Z,976.65
2017-04-25T03:26:59.364Z,976.68
2017-04-25T03:28:01.765Z,976.71
2017-04-25T03:29:04.158Z,976.66
2017-04-25T03:30:06.581Z,976.65
2017-04-25T03:31:08.928Z,976.71
2017-04-25T03:32:11.928Z,976.71
2017-04-25T03:33:14.313Z,976.74
2017-04-25T03:34:16.692Z,976.74
2017-04-25T03:35:19.080Z,976.75
2017-04-25T03:36:21.474Z,976.77
2017-04-25T03:37:24.412Z,976.76
2017-04-25T03:38:26.787Z,976.75
2017-04-25T03:39:29.168Z,976.74
2017-04-25T03:40:31.552Z,976.72
2017-04-25T03:41:33.954Z,976.73
2017-04-25T03:42:36.943Z,976.73
2017-04-25T03:43:39.310Z,976.70
2017-04-25T03:44:41.691Z,976.74
2017-04-25T03:45:44.076Z,976.73
2017-04-25T03:46:46.459Z,976.77
2017-04-25T03:47:49.600Z,976.75
2017-04-25T03:48:51.966Z,976.77
2017-04-25T03:49:54.351Z,976.80
2017-04-25T03:50:56.754Z,976.74
2017-04-25T03:51:59.131Z,976.77
2017-04-25T03:53:02.209Z,976.77
2017-04-25T03:54:04.619Z,976.79
2017-04-25T03:55:06.967Z,976.84
2017-04-25T03:56:09.347Z,976.80
2017-04-25T03:57:11.704Z,976.80
2017-04-25T03:58:14.693Z,976.82
2017-04-25T03:59:17.060Z,976.80
2017-04-25T04:00:19.429Z,976.80
2017-04-25T04:01:21.822Z,976.81
2017-04-25T04:02:24.202Z,976.84
2017-04-25T04:03:27.349Z,976.79
2017-04-25T04:04:29.727Z,976.81
2017-04-25T04:05:32.118Z,976.77
2017-04-25T04:06:34.726Z,976.78
2017-04-25T04:07:37.076Z,976.73
2017-04-25T04:08:40.059Z,976.78
2017-04-25T04:09:42.422Z,976.75
2017-04-25T04:10:44.812Z,976.75
2017-04-25T04:11:47.177Z,976.77
2017-04-25T04:12:49.552Z,976.76
2017-04-25T04:13:52.612Z,976.81
2017-04-25T04:14:55.009Z,976.75
2017-04-25T04:15:57.369Z,976.80
2017-04-25T04:16:59.761Z,976.81
2017-04-25T04:18:02.115Z,976.82
2017-04-25T04:19:05.229Z,976.80
2017-04-25T04:20:07.602Z,976.80
2017-04-25T04:21:09.990Z,976.82
2017-04-25T04:22:12.354Z,976.82
2017-04-25T04:23:14.717Z,976.82
2017-04-25T04:24:17.719Z,976.79
2017-04-25T04:25:20.088Z,976.80
2017-04-25T04:26:22.449Z,976.82
2017-04-25T04:27:24.826Z,976.81
2017-04-25T04:28:27.197Z,976.86
2017-04-25T04:29:30.280Z,976.87
2017-04-25T04:30:32.663Z,976.91
2017-04-25T04:31:35.032Z,976.86
2017-04-25T04:32:37.413Z,976.89
2017-04-25T04:33:39.785Z,976.87
2017-04-25T04:34:42.858Z,976.91
2017-04-25T04:35:45.252Z,976.87
2017-04-25T04:36:47.608Z,976.88
2017-04-25T04:37:50.009Z,976.91
2017-04-25T04:38:52.398Z,976.87
2017-04-25T04:39:55.383Z,976.86
2017-04-25T04:40:57.746Z,976.83
2017-04-25T04:42:00.108Z,976.84
2017-04-25T04:43:02.464Z,976.82
2017-04-25T04:44:04.840Z,976.86
2017-04-25T04:45:07.920Z,976.90
2017-04-25T04:46:10.284Z,976.84
2017-04-25T04:47:12.655Z,976.85
2017-04-25T04:48:15.015Z,976.87
2017-04-25T04:49:17.395Z,976.87
2017-04-25T04:50:20.366Z,976.85
2017-04-25T04:51:22.726Z,976.82
2017-04-25T04:52:25.087Z,976.85
2017-04-25T04:53:27.448Z,976.87
2017-04-25T04:54:29.810Z,976.87
2017-04-25T04:55:32.772Z,976.89
2017-04-25T04:56:35.134Z,976.85
2017-04-25T04:57:37.492Z,976.85
2017-04-25T04:58:39.868Z,976.88
2017-04-25T04:59:42.223Z,976.89
2017-04-25T05:00:45.189Z,976.86
2017-04-25T05:01:47.558Z,976.82
2017-04-25T05:02:49.918Z,976.85
2017-04-25T05:03:52.281Z,976.85
2017-04-25T05:04:54.639Z,976.81
2017-04-25T05:05:57.726Z,976.80
2017-04-25T05:07:00.067Z,976.77
2017-04-25T05:08:02.428Z,976.74
2017-04-25T05:09:04.802Z,976.75
2017-04-25T05:10:07.181Z,976.74
2017-04-25T05:11:10.124Z,976.74
2017-04-25T05:12:12.481Z,976.74
2017-04-25T05:13:14.847Z,976.75
2017-04-25T05:14:17.199Z,976.75
2017-04-25T05:15:19.561Z,976.82
2017-04-25T05:16:22.533Z,976.78
2017-04-25T05:17:24.890Z,976.82
2017-04-25T05:18:27.261Z,976.81
2017-04-25T05:19:29.627Z,976.77
2017-04-25T05:20:32.016Z,976.77
2017-04-25T05:21:34.960Z,976.76
2017-04-25T05:22:37.329Z,976.72
2017-04-25T05:23:39.701Z,976.76
2017-04-25T05:24:42.052Z,976.72
2017-04-25T05:25:44.413Z,976.71
2017-04-25T05:26:47.381Z,976.71
2017-04-25T05:27:49.748Z,976.70
2017-04-25T05:28:52.111Z,976.70
2017-04-25T05:29:54.478Z,976.68
2017-04-25T05:30:56.844Z,976.67
2017-04-25T05:31:59.801Z,976.68
2017-04-25T05:33:02.163Z,976.71
2017-04-25T05:34:04.522Z,976.65
2017-04-25T05:35:06.880Z,976.71
2017-04-25T05:36:09.241Z,976.66
2017-04-25T05:37:12.216Z,976.69
2017-04-25T05:38:14.571Z,976.65
2017-04-25T05:39:16.923Z,976.70
2017-04-25T05:40:19.293Z,976.68
2017-04-25T05:41:21.654Z,976.63
2017-04-25T05:42:24.610Z,976.67
2017-04-25T05:43:26.975Z,976.65
2017-04-25T05:44:29.334Z,976.68
2017-04-25T05:45:31.689Z,976.67
2017-04-25T05:46:34.054Z,976.70
2017-04-25T05:47:37.015Z,976.66
2017-04-25T05:48:39.382Z,976.67
2017-04-25T05:49:41.734Z,976.71
2017-04-25T05:50:44.094Z,976.69
2017-04-25T05:51:46.453Z,976.68
2017-04-25T05:52:49.508Z,976.70
2017-04-25T05:53:51.881Z,976.69
2017-04-25T05:54:54.238Z,976.68
2017-04-25T05:55:56.601Z,976.70
2017-04-25T05:56:58.960Z,976.70
2017-04-25T05:58:01.921Z,976.65
2017-04-25T05:59:04.280Z,976.63
2017-04-25T06:00:06.631Z,976.66
2017-04-25T06:01:08.992Z,976.63
2017-04-25T06:02:11.364Z,976.59
2017-04-25T06:03:14.326Z,976.60
2017-04-25T06:04:16.680Z,976.58
2017-04-25T06:05:19.050Z,976.61
2017-04-25T06:06:21.406Z,976.58
2017-04-25T06:07:23.767Z,976.58
2017-04-25T06:08:26.727Z,976.57
2017-04-25T06:09:29.102Z,976.54
2017-04-25T06:10:31.450Z,976.51
2017-04-25T06:11:33.813Z,976.49
2017-04-25T06:12:36.171Z,976.51
2017-04-25T06:13:39.235Z,976.48
2017-04-25T06:14:41.597Z,976.47
2017-04-25T06:15:43.955Z,976.45
2017-04-25T06:16:46.311Z,976.40
2017-04-25T06:17:48.667Z,976.43
2017-04-25T06:18:51.629Z,976.38
2017-04-25T06:19:54.016Z,976.34
2017-04-25T06:20:56.356Z,976.39
2017-04-25T06:21:58.713Z,976.36
2017-04-25T06:23:01.096Z,976.36
2017-04-25T06:24:04.149Z,976.34
2017-04-25T06:25:06.504Z,976.34
2017-04-25T06:26:08.871Z,976.30
2017-04-25T06:27:11.224Z,976.36
2017-04-25T06:28:13.587Z,976.35
2017-04-25T06:29:16.658Z,976.36
2017-04-25T06:30:19.014Z,976.32
2017-04-25T06:31:21.392Z,976.34
2017-04-25T06:32:23.745Z,976.32
2017-04-25T06:33:26.103Z,976.29
2017-04-25T06:34:29.074Z,976.31
2017-04-25T06:35:31.426Z,976.23
2017-04-25T06:36:33.790Z,976.24
2017-04-25T06:37:36.146Z,976.24
2017-04-25T06:38:38.515Z,976.21
2017-04-25T06:39:41.582Z,976.17
2017-04-25T06:40:43.947Z,976.17
2017-04-25T06:41:46.306Z,976.22
2017-04-25T06:42:48.657Z,976.20
2017-04-25T06:43:51.022Z,976.21
2017-04-25T06:44:54.081Z,976.21
2017-04-25T06:45:56.443Z,976.17
2017-04-25T06:46:58.800Z,976.14
2017-04-25T06:48:01.158Z,976.15
2017-04-25T06:49:03.530Z,976.16
2017-04-25T06:50:06.487Z,976.14
2017-04-25T06:51:08.843Z,976.13
2017-04-25T06:52:11.201Z,976.09
2017-04-25T06:53:13.561Z,976.08
2017-04-25T06:54:15.930Z,976.10
2017-04-25T06:55:18.980Z,976.07
2017-04-25T06:56:21.339Z,976.06
2017-04-25T06:57:23.700Z,976.04
2017-04-25T06:58:26.063Z,976.06
2017-04-25T06:59:28.419Z,976.05
2017-04-25T07:00:31.484Z,976.07
2017-04-25T07:01:33.850Z,976.04
2017-04-25T07:02:36.207Z,976.06
2017-04-25T07:03:38.561Z,976.06
2017-04-25T07:04:40.931Z,976.04
2017-04-25T07:05:43.895Z,976.04
2017-04-25T07:06:46.248Z,976.02
2017-04-25T07:07:48.608Z,976.01
2017-04-25T07:08:50.966Z,976.05
2017-04-25T07:09:53.343Z,976.00
2017-04-25T07:10:56.396Z,976.02
2017-04-25T07:11:58.754Z,976.00
2017-04-25T07:13:01.119Z,976.01
2017-04-25T07:14:03.471Z,976.01
2017-04-25T07:15:05.829Z,976.00
2017-04-25T07:16:08.888Z,975.99
2017-04-25T07:17:11.250Z,976.00
2017-04-25T07:18:13.614Z,975.97
2017-04-25T07:19:15.985Z,975.99
2017-04-25T07:20:18.339Z,975.99
2017-04-25T07:21:21.295Z,976.02
2017-04-25T07:22:23.657Z,975.99
2017-04-25T07:23:26.013Z,976.00
2017-04-25T07:24:28.376Z,975.99
2017-04-25T07:25:30.733Z,975.96
2017-04-25T07:26:33.790Z,975.97
2017-04-25T07:27:36.153Z,975.98
2017-04-25T07:28:38.513Z,975.95
2017-04-25T07:29:40.872Z,975.94
2017-04-25T07:30:43.236Z,975.91
2017-04-25T07:31:46.293Z,975.94
2017-04-25T07:32:48.658Z,975.91
2017-04-25T07:33:51.012Z,975.94
2017-04-25T07:34:53.376Z,975.96
2017-04-25T07:35:55.747Z,975.91
2017-04-25T07:36:58.801Z,975.89
2017-04-25T07:38:01.160Z,975.86
2017-04-25T07:39:03.520Z,975.85
2017-04-25T07:40:05.880Z,975.83
2017-04-25T07:41:08.238Z,975.84
2017-04-25T07:42:11.299Z,975.84
2017-04-25T07:43:13.658Z,975.77
2017-04-25T07:44:16.011Z,975.75
2017-04-25T07:45:18.372Z,975.74
2017-04-25T07:46:20.742Z,975.68
2017-04-25T07:47:23.705Z,975.69
2017-04-25T07:48:26.064Z,975.68
2017-04-25T07:49:28.429Z,975.68
2017-04-25T07:50:30.800Z,975.67
2017-04-25T07:51:33.155Z,975.65
2017-04-25T07:52:36.224Z,975.66
2017-04-25T07:53:38.582Z,975.61
2017-04-25T07:54:40.951Z,975.62
2017-04-25T07:55:43.311Z,975.60
2017-04-25T07:56:45.670Z,975.60
2017-04-25T07:57:48.632Z,975.60
2017-04-25T07:58:50.986Z,975.63
2017-04-25T07:59:53.351Z,975.60
2017-04-25T08:00:55.717Z,975.59
2017-04-25T08:01:58.085Z,975.59
2017-04-25T08:03:01.148Z,975.54
2017-04-25T08:04:03.498Z,975.54
2017-04-25T08:05:05.857Z,975.54
2017-04-25T08:06:08.219Z,975.54
2017-04-25T08:07:10.596Z,975.50
2017-04-25T08:08:13.648Z,975.52
2017-04-25T08:09:16.009Z,975.46
2017-04-25T08:10:18.372Z,975.45
2017-04-25T08:11:20.725Z,975.41
2017-04-25T08:12:23.087Z,975.43
2017-04-25T08:13:26.050Z,975.43
2017-04-25T08:14:28.416Z,975.41
2017-04-25T08:15:30.779Z,975.40
2017-04-25T08:16:33.134Z,975.34
2017-04-25T08:17:35.486Z,975.33
2017-04-25T08:18:38.449Z,975.36
2017-04-25T08:19:40.810Z,975.34
2017-04-25T08:20:43.177Z,975.28
2017-04-25T08:21:45.535Z,975.28
2017-04-25T08:22:47.906Z,975.25
2017-04-25T08:23:50.972Z,975.26
2017-04-25T08:24:53.332Z,975.22
2017-04-25T08:25:55.687Z,975.24
2017-04-25T08:26:58.050Z,975.24
2017-04-25T08:28:00.411Z,975.23
2017-04-25T08:29:03.474Z,975.24
2017-04-25T08:30:05.836Z,975.24
2017-04-25T08:31:08.205Z,975.23
2017-04-25T08:32:10.559Z,975.25
2017-04-25T08:33:12.916Z,975.20
2017-04-25T08:34:15.884Z,975.22
2017-04-25T08:35:18.253Z,975.19
2017-04-25T08:36:20.609Z,975.21
2017-04-25T08:37:22.963Z,975.18
2017-04-25T08:38:25.319Z,975.17
2017-04-25T08:39:28.384Z,975.18
2017-04-25T08:40:30.745Z,975.15
2017-04-25T08:41:33.103Z,975.18
2017-04-25T08:42:35.458Z,975.12
2017-04-25T08:43:37.816Z,975.11
2017-04-25T08:44:40.782Z,975.12
2017-04-25T08:45:43.142Z,975.13
2017-04-25T08:46:45.499Z,975.11
2017-04-25T08:47:47.863Z,975.12
2017-04-25T08:48:50.227Z,975.12
2017-04-25T08:49:53.285Z,975.14
2017-04-25T08:50:55.654Z,975.14
2017-04-25T08:51:58.005Z,975.13
2017-04-25T08:53:00.368Z,975.11
2017-04-25T08:54:02.727Z,975.11
2017-04-25T08:55:05.797Z,975.10
2017-04-25T08:56:08.161Z,975.13
2017-04-25T08:57:10.522Z,975.11
2017-04-25T08:58:12.888Z,975.12
2017-04-25T08:59:15.255Z,975.13
2017-04-25T09:00:18.214Z,975.07
2017-04-25T09:01:20.578Z,975.09
2017-04-25T09:02:22.939Z,975.09
2017-04-25T09:03:25.297Z,975.11
2017-04-25T09:04:27.660Z,975.12
2017-04-25T09:05:30.725Z,975.14
2017-04-25T09:06:33.087Z,975.11
2017-04-25T09:07:35.446Z,975.12
2017-04-25T09:08:37.808Z,975.12
2017-04-25T09:09:40.173Z,975.13
2017-04-25T09:10:43.231Z,975.12
2017-04-25T09:11:45.602Z,975.12
2017-04-25T09:12:47.951Z,975.15
2017-04-25T09:13:50.314Z,975.11
2017-04-25T09:14:52.676Z,975.14
2017-04-25T09:15:57.790Z,975.15
2017-04-25T09:17:00.151Z,975.16
2017-04-25T09:18:02.511Z,975.19
2017-04-25T09:19:04.879Z,975.14
2017-04-25T09:20:07.240Z,975.20
2017-04-25T09:21:10.411Z,975.19
2017-04-25T09:22:12.775Z,975.20
2017-04-25T09:23:15.145Z,975.17
2017-04-25T09:24:17.520Z,975.18
2017-04-25T09:25:19.869Z,975.23
2017-04-25T09:26:22.881Z,975.22
2017-04-25T09:27:25.245Z,975.23
2017-04-25T09:28:27.605Z,975.26
2017-04-25T09:29:29.959Z,975.26
2017-04-25T09:30:32.325Z,975.26
2017-04-25T09:31:35.234Z,975.26
2017-04-25T09:32:37.600Z,975.25
2017-04-25T09:33:39.955Z,975.23
2017-04-25T09:34:42.310Z,975.27
2017-04-25T09:35:44.677Z,975.27
2017-04-25T09:36:47.637Z,975.30
2017-04-25T09:37:50.004Z,975.27
2017-04-25T09:38:52.362Z,975.30
2017-04-25T09:39:54.721Z,975.29
2017-04-25T09:40:57.081Z,975.31
2017-04-25T09:41:59.990Z,975.32
2017-04-25T09:43:02.353Z,975.33
2017-04-25T09:44:04.715Z,975.33
2017-04-25T09:45:07.081Z,975.39
2017-04-25T09:46:09.448Z,975.42
2017-04-25T09:47:12.403Z,975.44
2017-04-25T09:48:14.764Z,975.42
2017-04-25T09:49:17.135Z,975.47
2017-04-25T09:50:19.490Z,975.44
2017-04-25T09:51:21.860Z,975.45
2017-04-25T09:52:24.837Z,975.48
2017-04-25T09:53:27.183Z,975.49
2017-04-25T09:54:29.547Z,975.49
2017-04-25T09:55:31.915Z,975.48
2017-04-25T09:56:34.273Z,975.47
2017-04-25T09:57:37.339Z,975.49
2017-04-25T09:58:39.699Z,975.48
2017-04-25T09:59:42.051Z,975.46
2017-04-25T10:00:44.419Z,975.49
2017-04-25T10:01:46.768Z,975.51
2017-04-25T10:02:49.835Z,975.49
2017-04-25T10:03:52.198Z,975.47
2017-04-25T10:04:54.558Z,975.50
2017-04-25T10:05:56.917Z,975.47
2017-04-25T10:06:59.281Z,975.49
2017-04-25T10:08:02.240Z,975.47
2017-04-25T10:09:04.590Z,975.47
2017-04-25T10:10:06.952Z,975.49
2017-04-25T10:11:09.313Z,975.50
2017-04-25T10:12:11.673Z,975.49
2017-04-25T10:13:14.579Z,975.51
2017-04-25T10:14:16.936Z,975.54
2017-04-25T10:15:19.295Z,975.59
2017-04-25T10:16:21.656Z,975.60
2017-04-25T10:17:24.012Z,975.63
2017-04-25T10:18:26.969Z,975.62
2017-04-25T10:19:29.343Z,975.61
2017-04-25T10:20:31.704Z,975.64
2017-04-25T10:21:34.059Z,975.65
2017-04-25T10:22:36.420Z,975.69
2017-04-25T10:23:39.378Z,975.71
2017-04-25T10:24:41.747Z,975.69
2017-04-25T10:25:44.099Z,975.70
2017-04-25T10:26:46.467Z,975.70
2017-04-25T10:27:48.816Z,975.69
2017-04-25T10:28:51.774Z,975.70
2017-04-25T10:29:54.137Z,975.73
2017-04-25T10:30:56.500Z,975.73
2017-04-25T10:31:58.865Z,975.73
2017-04-25T10:33:01.227Z,975.73
2017-04-25T10:34:04.167Z,975.74
2017-04-25T10:35:06.503Z,975.75
2017-04-25T10:36:08.880Z,975.73
2017-04-25T10:37:11.251Z,975.75
2017-04-25T10:38:13.613Z,975.79
2017-04-25T10:39:16.576Z,975.83
2017-04-25T10:40:18.931Z,975.84
2017-04-25T10:41:21.290Z,975.84
2017-04-25T10:42:23.669Z,975.85
2017-04-25T10:43:26.025Z,975.85
2017-04-25T10:44:29.086Z,975.85
2017-04-25T10:45:31.439Z,975.85
2017-04-25T10:46:33.800Z,975.84
2017-04-25T10:47:36.161Z,975.82
2017-04-25T10:48:38.524Z,975.82
2017-04-25T10:49:41.490Z,975.82
2017-04-25T10:50:43.848Z,975.83
2017-04-25T10:51:46.211Z,975.86
2017-04-25T10:52:48.581Z,975.83
2017-04-25T10:53:50.930Z,975.89
2017-04-25T10:54:53.895Z,975.84
2017-04-25T10:55:56.252Z,975.86
2017-04-25T10:56:58.622Z,975.83
2017-04-25T10:58:00.982Z,975.82
2017-04-25T10:59:03.335Z,975.80
2017-04-25T11:00:06.298Z,975.81
2017-04-25T11:01:08.659Z,975.82
2017-04-25T11:02:11.018Z,975.87
2017-04-25T11:03:13.372Z,975.83
2017-04-25T11:04:15.738Z,975.85
2017-04-25T11:05:18.700Z,975.87
2017-04-25T11:06:21.059Z,975.87
2017-04-25T11:07:23.416Z,975.86
2017-04-25T11:08:25.775Z,975.88
2017-04-25T11:09:28.132Z,975.88
2017-04-25T11:10:31.097Z,975.88
2017-04-25T11:11:33.457Z,975.87
2017-04-25T11:12:35.817Z,975.84
2017-04-25T11:13:38.174Z,975.82
2017-04-25T11:14:40.532Z,975.84
2017-04-25T11:15:43.515Z,975.86
2017-04-25T11:16:45.859Z,975.82
2017-04-25T11:17:48.219Z,975.83
2017-04-25T11:18:50.586Z,975.86
2017-04-25T11:19:52.947Z,975.87
2017-04-25T11:20:55.908Z,975.85
2017-04-25T11:21:58.275Z,975.85
2017-04-25T11:23:00.627Z,975.86
2017-04-25T11:24:02.997Z,975.86
2017-04-25T11:25:05.355Z,975.88
2017-04-25T11:26:10.316Z,975.85
2017-04-25T11:27:12.675Z,975.85
2017-04-25T11:28:15.034Z,975.84
2017-04-25T11:29:17.389Z,975.89
2017-04-25T11:30:19.745Z,975.88
2017-04-25T11:31:22.713Z,975.91
2017-04-25T11:32:25.078Z,975.91
2017-04-25T11:33:27.443Z,975.89
2017-04-25T11:34:29.807Z,975.87
2017-04-25T11:35:32.177Z,975.90
2017-04-25T11:36:35.136Z,975.85
2017-04-25T11:37:37.506Z,975.87
2017-04-25T11:38:39.867Z,975.88
2017-04-25T11:39:42.226Z,975.89
2017-04-25T11:40:44.583Z,975.89
2017-04-25T11:41:47.644Z,975.89
2017-04-25T11:42:50.015Z,975.87
2017-04-25T11:43:52.366Z,975.86
2017-04-25T11:44:54.727Z,975.85
2017-04-25T11:45:57.091Z,975.90
2017-04-25T11:47:00.053Z,975.91
2017-04-25T11:48:02.412Z,975.90
2017-04-25T11:49:04.789Z,975.94
2017-04-25T11:50:07.143Z,975.95
2017-04-25T11:51:09.500Z,975.96
2017-04-25T11:52:12.463Z,975.98
2017-04-25T11:53:14.857Z,975.97
2017-04-25T11:54:17.184Z,976.02
2017-04-25T11:55:19.551Z,976.02
2017-04-25T11:56:21.925Z,976.00
2017-04-25T11:57:24.977Z,976.00
2017-04-25T11:58:27.337Z,976.01
2017-04-25T11:59:29.699Z,976.04
2017-04-25T12:00:32.064Z,976.08
2017-04-25T12:01:34.431Z,976.07
2017-04-25T12:02:37.402Z,976.09
2017-04-25T12:03:39.796Z,976.10
2017-04-25T12:04:42.147Z,976.10
2017-04-25T12:05:44.503Z,976.08
2017-04-25T12:06:46.870Z,976.13
2017-04-25T12:07:49.941Z,976.12
2017-04-25T12:08:52.301Z,976.12
2017-04-25T12:09:54.664Z,976.18
2017-04-25T12:10:57.029Z,976.18
2017-04-25T12:11:59.406Z,976.19
2017-04-25T12:13:02.368Z,976.21
2017-04-25T12:14:04.725Z,976.26
2017-04-25T12:15:07.089Z,976.27
2017-04-25T12:16:09.457Z,976.27
2017-04-25T12:17:11.822Z,976.31
2017-04-25T12:18:14.895Z,976.32
2017-04-25T12:19:17.258Z,976.35
2017-04-25T12:20:19.616Z,976.31
2017-04-25T12:21:21.988Z,976.37
2017-04-25T12:22:24.347Z,976.38
2017-04-25T12:23:27.419Z,976.34
2017-04-25T12:24:29.787Z,976.40
2017-04-25T12:25:32.158Z,976.43
2017-04-25T12:26:34.514Z,976.41
2017-04-25T12:27:36.882Z,976.40
2017-04-25T12:28:39.841Z,976.45
2017-04-25T12:29:42.207Z,976.43
2017-04-25T12:30:44.573Z,976.41
2017-04-25T12:31:46.937Z,976.40
2017-04-25T12:32:49.306Z,976.40
2017-04-25T12:33:52.379Z,976.40
2017-04-25T12:34:54.745Z,976.42
2017-04-25T12:35:57.120Z,976.42
2017-04-25T12:36:59.487Z,976.45
2017-04-25T12:38:01.850Z,976.43
2017-04-25T12:39:04.814Z,976.52
2017-04-25T12:40:07.185Z,976.51
2017-04-25T12:41:09.556Z,976.53
2017-04-25T12:42:11.922Z,976.58
2017-04-25T12:43:14.292Z,976.60
2017-04-25T12:44:17.354Z,976.60
2017-04-25T12:45:19.731Z,976.57
2017-04-25T12:46:22.093Z,976.62
2017-04-25T12:47:24.452Z,976.66
2017-04-25T12:48:26.816Z,976.69
2017-04-25T12:49:29.887Z,976.65
2017-04-25T12:50:32.263Z,976.65
2017-04-25T12:51:34.624Z,976.64
2017-04-25T12:52:36.985Z,976.64
2017-04-25T12:53:39.352Z,976.66
2017-04-25T12:54:42.321Z,976.66
2017-04-25T12:55:44.684Z,976.64
2017-04-25T12:56:47.044Z,976.67
2017-04-25T12:57:49.412Z,976.64
2017-04-25T12:58:51.784Z,976.67
2017-04-25T12:59:54.748Z,976.69